sensor_id;sensor_type;location;lat;lon;timestamp;P1;durP1;ratioP1;P2;durP2;ratioP2
45940;SDS011;31858;46.008;8.978;2023-09-18T00:00:19;18.38;;;5.55;;
45940;SDS011;31858;46.008;8.978;2023-09-18T00:10:21;9.00;;;4.55;;
45940;SDS011;31858;46.008;8.978;2023-09-18T00:20:24;8.50;;;4.53;;
45940;SDS011;31858;46.008;8.978;2023-09-18T00:30:27;7.45;;;4.80;;
45940;SDS011;31858;46.008;8.978;2023-09-18T00:40:30;7.35;;;4.80;;
45940;SDS011;31858;46.008;8.978;2023-09-18T00:50:31;13.90;;;4.55;;
45940;SDS011;31858;46.008;8.978;2023-09-18T01:00:35;10.20;;;5.35;;
45940;SDS011;31858;46.008;8.978;2023-09-18T01:10:39;10.32;;;4.68;;
45940;SDS011;31858;46.008;8.978;2023-09-18T01:20:51;6.82;;;4.82;;
45940;SDS011;31858;46.008;8.978;2023-09-18T01:30:54;9.32;;;4.88;;
45940;SDS011;31858;46.008;8.978;2023-09-18T01:40:55;8.98;;;4.70;;
45940;SDS011;31858;46.008;8.978;2023-09-18T01:50:59;10.45;;;4.88;;
45940;SDS011;31858;46.008;8.978;2023-09-18T02:01:01;8.40;;;5.20;;
45940;SDS011;31858;46.008;8.978;2023-09-18T02:11:04;8.60;;;5.55;;
45940;SDS011;31858;46.008;8.978;2023-09-18T02:21:05;6.18;;;4.90;;
45940;SDS011;31858;46.008;8.978;2023-09-18T02:31:08;15.23;;;5.47;;
45940;SDS011;31858;46.008;8.978;2023-09-18T02:41:10;12.18;;;6.20;;
45940;SDS011;31858;46.008;8.978;2023-09-18T02:51:13;10.13;;;6.03;;
45940;SDS011;31858;46.008;8.978;2023-09-18T03:01:15;10.60;;;5.53;;
45940;SDS011;31858;46.008;8.978;2023-09-18T03:11:18;7.10;;;5.47;;
45940;SDS011;31858;46.008;8.978;2023-09-18T03:21:19;10.32;;;5.65;;
45940;SDS011;31858;46.008;8.978;2023-09-18T03:31:22;10.00;;;5.70;;
45940;SDS011;31858;46.008;8.978;2023-09-18T03:41:24;7.35;;;5.00;;
45940;SDS011;31858;46.008;8.978;2023-09-18T03:51:27;11.90;;;4.88;;
45940;SDS011;31858;46.008;8.978;2023-09-18T04:01:29;10.73;;;5.10;;
45940;SDS011;31858;46.008;8.978;2023-09-18T04:11:32;11.57;;;5.75;;
45940;SDS011;31858;46.008;8.978;2023-09-18T04:21:34;12.57;;;7.03;;
45940;SDS011;31858;46.008;8.978;2023-09-18T04:31:37;13.02;;;7.05;;
45940;SDS011;31858;46.008;8.978;2023-09-18T04:41:38;12.35;;;6.40;;
45940;SDS011;31858;46.008;8.978;2023-09-18T04:51:42;9.18;;;6.53;;
45940;SDS011;31858;46.008;8.978;2023-09-18T05:01:44;11.35;;;6.65;;
45940;SDS011;31858;46.008;8.978;2023-09-18T05:11:47;10.05;;;6.75;;
45940;SDS011;31858;46.008;8.978;2023-09-18T05:21:49;15.60;;;8.05;;
45940;SDS011;31858;46.008;8.978;2023-09-18T05:31:52;6.97;;;6.03;;
45940;SDS011;31858;46.008;8.978;2023-09-18T05:41:53;10.23;;;6.70;;
45940;SDS011;31858;46.008;8.978;2023-09-18T05:51:56;7.28;;;5.85;;
45940;SDS011;31858;46.008;8.978;2023-09-18T06:01:58;775.65;;;38.35;;
45940;SDS011;31858;46.008;8.978;2023-09-18T06:12:01;16.65;;;8.15;;
45940;SDS011;31858;46.008;8.978;2023-09-18T06:22:05;9.63;;;6.68;;
45940;SDS011;31858;46.008;8.978;2023-09-18T06:32:08;10.23;;;6.53;;
45940;SDS011;31858;46.008;8.978;2023-09-18T06:42:10;10.60;;;7.20;;
45940;SDS011;31858;46.008;8.978;2023-09-18T06:52:13;10.80;;;7.03;;
45940;SDS011;31858;46.008;8.978;2023-09-18T07:02:14;11.27;;;7.40;;
45940;SDS011;31858;46.008;8.978;2023-09-18T07:12:18;10.48;;;7.35;;
45940;SDS011;31858;46.008;8.978;2023-09-18T07:22:20;59.80;;;9.38;;
45940;SDS011;31858;46.008;8.978;2023-09-18T07:32:22;43.42;;;9.80;;
45940;SDS011;31858;46.008;8.978;2023-09-18T07:42:24;23.83;;;14.30;;
45940;SDS011;31858;46.008;8.978;2023-09-18T07:52:27;143.82;;;15.13;;
45940;SDS011;31858;46.008;8.978;2023-09-18T08:02:29;17.13;;;9.30;;
45940;SDS011;31858;46.008;8.978;2023-09-18T08:12:33;20.13;;;14.55;;
45940;SDS011;31858;46.008;8.978;2023-09-18T08:22:34;19.33;;;13.05;;
45940;SDS011;31858;46.008;8.978;2023-09-18T08:32:37;8.95;;;7.32;;
45940;SDS011;31858;46.008;8.978;2023-09-18T08:42:40;15.88;;;13.25;;
45940;SDS011;31858;46.008;8.978;2023-09-18T08:52:47;24.30;;;14.32;;
45940;SDS011;31858;46.008;8.978;2023-09-18T09:02:48;28.40;;;18.10;;
45940;SDS011;31858;46.008;8.978;2023-09-18T09:12:54;19.65;;;14.45;;
45940;SDS011;31858;46.008;8.978;2023-09-18T09:23:00;13.82;;;8.85;;
45940;SDS011;31858;46.008;8.978;2023-09-18T09:33:04;21.45;;;9.30;;
45940;SDS011;31858;46.008;8.978;2023-09-18T09:43:07;13.45;;;7.95;;
45940;SDS011;31858;46.008;8.978;2023-09-18T09:53:11;21.08;;;11.32;;
45940;SDS011;31858;46.008;8.978;2023-09-18T10:03:14;43.00;;;25.67;;
45940;SDS011;31858;46.008;8.978;2023-09-18T10:13:18;14.48;;;12.30;;
45940;SDS011;31858;46.008;8.978;2023-09-18T10:23:25;61.92;;;30.35;;
45940;SDS011;31858;46.008;8.978;2023-09-18T10:33:46;30.40;;;16.55;;
45940;SDS011;31858;46.008;8.978;2023-09-18T10:43:51;22.88;;;15.38;;
45940;SDS011;31858;46.008;8.978;2023-09-18T10:53:58;23.02;;;17.27;;
45940;SDS011;31858;46.008;8.978;2023-09-18T11:04:00;27.15;;;18.05;;
45940;SDS011;31858;46.008;8.978;2023-09-18T11:14:04;26.33;;;17.25;;
45940;SDS011;31858;46.008;8.978;2023-09-18T11:24:16;27.33;;;18.07;;
45940;SDS011;31858;46.008;8.978;2023-09-18T11:34:21;15.13;;;11.50;;
45940;SDS011;31858;46.008;8.978;2023-09-18T11:44:33;18.42;;;12.73;;
45940;SDS011;31858;46.008;8.978;2023-09-18T11:54:43;26.17;;;18.55;;
45940;SDS011;31858;46.008;8.978;2023-09-18T12:04:47;21.67;;;17.20;;
45940;SDS011;31858;46.008;8.978;2023-09-18T12:14:51;24.13;;;19.00;;
45940;SDS011;31858;46.008;8.978;2023-09-18T12:24:53;25.08;;;16.33;;
45940;SDS011;31858;46.008;8.978;2023-09-18T12:35:13;24.35;;;17.35;;
45940;SDS011;31858;46.008;8.978;2023-09-18T12:45:15;50.85;;;28.00;;
45940;SDS011;31858;46.008;8.978;2023-09-18T12:55:22;25.25;;;18.27;;
45940;SDS011;31858;46.008;8.978;2023-09-18T13:05:25;30.15;;;21.48;;
45940;SDS011;31858;46.008;8.978;2023-09-18T13:15:29;23.40;;;14.65;;
45940;SDS011;31858;46.008;8.978;2023-09-18T13:25:31;23.15;;;18.75;;
45940;SDS011;31858;46.008;8.978;2023-09-18T13:35:36;64.05;;;25.52;;
45940;SDS011;31858;46.008;8.978;2023-09-18T13:45:40;30.45;;;21.98;;
45940;SDS011;31858;46.008;8.978;2023-09-18T13:55:43;30.73;;;19.27;;
45940;SDS011;31858;46.008;8.978;2023-09-18T14:05:45;40.90;;;26.13;;
45940;SDS011;31858;46.008;8.978;2023-09-18T14:15:48;36.08;;;25.40;;
45940;SDS011;31858;46.008;8.978;2023-09-18T14:25:49;29.42;;;18.48;;
45940;SDS011;31858;46.008;8.978;2023-09-18T14:35:53;30.80;;;19.42;;
45940;SDS011;31858;46.008;8.978;2023-09-18T14:45:55;22.48;;;14.77;;
45940;SDS011;31858;46.008;8.978;2023-09-18T14:55:59;29.00;;;5.03;;
45940;SDS011;31858;46.008;8.978;2023-09-18T15:06:00;13.50;;;6.38;;
45940;SDS011;31858;46.008;8.978;2023-09-18T15:16:04;12.35;;;4.28;;
45940;SDS011;31858;46.008;8.978;2023-09-18T15:26:06;7.05;;;4.50;;
45940;SDS011;31858;46.008;8.978;2023-09-18T15:36:09;31.05;;;5.70;;
45940;SDS011;31858;46.008;8.978;2023-09-18T15:46:11;7.53;;;3.60;;
45940;SDS011;31858;46.008;8.978;2023-09-18T15:56:14;28.20;;;4.43;;
45940;SDS011;31858;46.008;8.978;2023-09-18T16:06:16;397.00;;;15.65;;
45940;SDS011;31858;46.008;8.978;2023-09-18T16:16:22;28.27;;;5.85;;
45940;SDS011;31858;46.008;8.978;2023-09-18T16:26:23;3.70;;;2.50;;
45940;SDS011;31858;46.008;8.978;2023-09-18T16:36:26;2.33;;;1.95;;
45940;SDS011;31858;46.008;8.978;2023-09-18T16:46:28;3.50;;;2.85;;
45940;SDS011;31858;46.008;8.978;2023-09-18T16:56:31;6.25;;;2.25;;
45940;SDS011;31858;46.008;8.978;2023-09-18T17:06:33;4.90;;;2.05;;
45940;SDS011;31858;46.008;8.978;2023-09-18T17:16:37;2.72;;;2.00;;
45940;SDS011;31858;46.008;8.978;2023-09-18T17:26:39;1.88;;;1.35;;
45940;SDS011;31858;46.008;8.978;2023-09-18T17:36:42;2.78;;;1.88;;
45940;SDS011;31858;46.008;8.978;2023-09-18T17:46:44;4.95;;;2.10;;
45940;SDS011;31858;46.008;8.978;2023-09-18T17:56:48;1.60;;;1.48;;
45940;SDS011;31858;46.008;8.978;2023-09-18T18:06:50;3.72;;;2.10;;
45940;SDS011;31858;46.008;8.978;2023-09-18T18:16:53;4.22;;;2.47;;
45940;SDS011;31858;46.008;8.978;2023-09-18T18:26:56;2.45;;;1.73;;
45940;SDS011;31858;46.008;8.978;2023-09-18T18:36:59;5.75;;;2.10;;
45940;SDS011;31858;46.008;8.978;2023-09-18T18:47:01;6.43;;;2.83;;
45940;SDS011;31858;46.008;8.978;2023-09-18T18:57:04;3.53;;;1.60;;
45940;SDS011;31858;46.008;8.978;2023-09-18T19:07:06;5.03;;;1.27;;
45940;SDS011;31858;46.008;8.978;2023-09-18T19:17:12;2.72;;;1.70;;
45940;SDS011;31858;46.008;8.978;2023-09-18T19:27:13;3.65;;;1.70;;
45940;SDS011;31858;46.008;8.978;2023-09-18T19:37:16;6.22;;;2.45;;
45940;SDS011;31858;46.008;8.978;2023-09-18T19:47:18;4.78;;;2.60;;
45940;SDS011;31858;46.008;8.978;2023-09-18T19:57:21;3.80;;;2.00;;
45940;SDS011;31858;46.008;8.978;2023-09-18T20:07:23;6.05;;;2.42;;
45940;SDS011;31858;46.008;8.978;2023-09-18T20:17:27;4.40;;;2.00;;
45940;SDS011;31858;46.008;8.978;2023-09-18T20:27:29;11.90;;;3.40;;
45940;SDS011;31858;46.008;8.978;2023-09-18T20:37:32;3.13;;;2.00;;
45940;SDS011;31858;46.008;8.978;2023-09-18T20:47:34;2.75;;;1.85;;
45940;SDS011;31858;46.008;8.978;2023-09-18T20:57:37;2.92;;;2.00;;
45940;SDS011;31858;46.008;8.978;2023-09-18T21:07:39;4.20;;;1.90;;
45940;SDS011;31858;46.008;8.978;2023-09-18T21:17:42;7.25;;;2.22;;
45940;SDS011;31858;46.008;8.978;2023-09-18T21:27:44;4.68;;;2.17;;
45940;SDS011;31858;46.008;8.978;2023-09-18T21:37:47;7.03;;;2.28;;
45940;SDS011;31858;46.008;8.978;2023-09-18T21:47:49;7.85;;;1.98;;
45940;SDS011;31858;46.008;8.978;2023-09-18T21:57:54;2.70;;;2.10;;
45940;SDS011;31858;46.008;8.978;2023-09-18T22:07:55;7.82;;;3.38;;
45940;SDS011;31858;46.008;8.978;2023-09-18T22:17:58;3.65;;;2.03;;
45940;SDS011;31858;46.008;8.978;2023-09-18T22:28:00;6.50;;;1.95;;
45940;SDS011;31858;46.008;8.978;2023-09-18T22:38:05;4.95;;;2.10;;
45940;SDS011;31858;46.008;8.978;2023-09-18T22:58:51;8.05;;;1.73;;
45940;SDS011;31858;46.008;8.978;2023-09-18T23:08:53;4.03;;;1.83;;
45940;SDS011;31858;46.008;8.978;2023-09-18T23:18:56;12.68;;;1.95;;
45940;SDS011;31858;46.008;8.978;2023-09-18T23:28:58;7.75;;;2.15;;
45940;SDS011;31858;46.008;8.978;2023-09-18T23:39:01;5.03;;;2.13;;
45940;SDS011;31858;46.008;8.978;2023-09-18T23:49:07;3.55;;;1.80;;
45940;SDS011;31858;46.008;8.978;2023-09-18T23:59:11;6.75;;;1.90;;
